sensor_id;sensor_type;location;lat;lon;timestamp;temperature;humidity
40738;DHT22;54759;48.094;-1.628;2022-08-27T00:02:06;23.60;57.50
40738;DHT22;54759;48.094;-1.628;2022-08-27T00:05:12;24.30;57.80
40738;DHT22;54759;48.094;-1.628;2022-08-27T00:08:14;24.40;58.00
40738;DHT22;54759;48.094;-1.628;2022-08-27T00:11:17;24.00;57.70
40738;DHT22;54759;48.094;-1.628;2022-08-27T00:14:18;24.30;57.90
40738;DHT22;54759;48.094;-1.628;2022-08-27T00:17:20;24.00;57.70
40738;DHT22;54759;48.094;-1.628;2022-08-27T00:20:23;24.40;57.90
40738;DHT22;54759;48.094;-1.628;2022-08-27T00:23:25;24.10;57.80
40738;DHT22;54759;48.094;-1.628;2022-08-27T00:26:27;24.20;57.80
40738;DHT22;54759;48.094;-1.628;2022-08-27T00:29:29;24.00;57.70
40738;DHT22;54759;48.094;-1.628;2022-08-27T00:32:30;24.50;58.00
40738;DHT22;54759;48.094;-1.628;2022-08-27T00:35:32;23.90;57.80
40738;DHT22;54759;48.094;-1.628;2022-08-27T00:38:34;24.20;57.90
40738;DHT22;54759;48.094;-1.628;2022-08-27T00:41:35;24.00;57.80
40738;DHT22;54759;48.094;-1.628;2022-08-27T00:44:37;24.30;58.00
40738;DHT22;54759;48.094;-1.628;2022-08-27T00:47:40;24.00;57.80
40738;DHT22;54759;48.094;-1.628;2022-08-27T00:50:45;24.00;57.80
40738;DHT22;54759;48.094;-1.628;2022-08-27T00:53:47;24.10;57.90
40738;DHT22;54759;48.094;-1.628;2022-08-27T00:56:49;24.10;57.90
40738;DHT22;54759;48.094;-1.628;2022-08-27T00:59:52;23.80;57.80
40738;DHT22;54759;48.094;-1.628;2022-08-27T01:02:53;24.30;58.10
40738;DHT22;54759;48.094;-1.628;2022-08-27T01:05:56;24.00;57.90
40738;DHT22;54759;48.094;-1.628;2022-08-27T01:09:02;24.10;58.00
40738;DHT22;54759;48.094;-1.628;2022-08-27T01:12:05;24.00;57.90
40738;DHT22;54759;48.094;-1.628;2022-08-27T01:15:08;24.10;58.00
40738;DHT22;54759;48.094;-1.628;2022-08-27T01:18:12;24.10;58.00
40738;DHT22;54759;48.094;-1.628;2022-08-27T01:21:18;24.00;58.00
40738;DHT22;54759;48.094;-1.628;2022-08-27T01:24:26;24.20;58.10
40738;DHT22;54759;48.094;-1.628;2022-08-27T01:27:29;24.00;58.00
40738;DHT22;54759;48.094;-1.628;2022-08-27T01:30:31;23.90;58.00
40738;DHT22;54759;48.094;-1.628;2022-08-27T01:33:32;24.20;58.10
40738;DHT22;54759;48.094;-1.628;2022-08-27T01:36:34;23.90;58.00
40738;DHT22;54759;48.094;-1.628;2022-08-27T01:39:36;24.10;58.10
40738;DHT22;54759;48.094;-1.628;2022-08-27T01:42:40;24.20;58.10
40738;DHT22;54759;48.094;-1.628;2022-08-27T01:45:46;24.30;58.20
40738;DHT22;54759;48.094;-1.628;2022-08-27T01:48:48;24.00;58.10
40738;DHT22;54759;48.094;-1.628;2022-08-27T01:51:49;24.30;58.30
40738;DHT22;54759;48.094;-1.628;2022-08-27T01:54:52;23.90;58.10
40738;DHT22;54759;48.094;-1.628;2022-08-27T01:57:53;24.00;58.10
40738;DHT22;54759;48.094;-1.628;2022-08-27T02:00:55;23.80;58.00
40738;DHT22;54759;48.094;-1.628;2022-08-27T02:03:57;24.20;58.20
40738;DHT22;54759;48.094;-1.628;2022-08-27T02:06:59;23.90;58.10
40738;DHT22;54759;48.094;-1.628;2022-08-27T02:10:01;23.90;58.10
40738;DHT22;54759;48.094;-1.628;2022-08-27T02:13:02;23.90;58.10
40738;DHT22;54759;48.094;-1.628;2022-08-27T02:16:06;24.00;58.10
40738;DHT22;54759;48.094;-1.628;2022-08-27T02:19:08;23.80;58.00
40738;DHT22;54759;48.094;-1.628;2022-08-27T02:22:10;24.10;58.20
40738;DHT22;54759;48.094;-1.628;2022-08-27T02:25:13;24.20;58.50
40738;DHT22;54759;48.094;-1.628;2022-08-27T02:28:15;24.30;58.90
40738;DHT22;54759;48.094;-1.628;2022-08-27T02:31:16;24.10;58.20
40738;DHT22;54759;48.094;-1.628;2022-08-27T02:34:18;23.80;58.10
40738;DHT22;54759;48.094;-1.628;2022-08-27T02:37:19;23.90;58.10
40738;DHT22;54759;48.094;-1.628;2022-08-27T02:40:23;24.00;58.20
40738;DHT22;54759;48.094;-1.628;2022-08-27T02:43:24;23.80;58.10
40738;DHT22;54759;48.094;-1.628;2022-08-27T02:46:28;24.00;58.20
40738;DHT22;54759;48.094;-1.628;2022-08-27T02:49:30;23.70;58.10
40738;DHT22;54759;48.094;-1.628;2022-08-27T02:52:34;24.00;58.30
40738;DHT22;54759;48.094;-1.628;2022-08-27T02:55:37;24.00;58.30
40738;DHT22;54759;48.094;-1.628;2022-08-27T02:58:41;24.10;58.30
40738;DHT22;54759;48.094;-1.628;2022-08-27T03:01:42;24.00;58.30
40738;DHT22;54759;48.094;-1.628;2022-08-27T03:04:44;23.90;58.20
40738;DHT22;54759;48.094;-1.628;2022-08-27T03:07:45;23.80;58.10
40738;DHT22;54759;48.094;-1.628;2022-08-27T03:10:47;23.80;58.20
40738;DHT22;54759;48.094;-1.628;2022-08-27T03:13:49;23.70;58.10
40738;DHT22;54759;48.094;-1.628;2022-08-27T03:16:51;23.80;58.20
40738;DHT22;54759;48.094;-1.628;2022-08-27T03:19:52;23.70;58.20
40738;DHT22;54759;48.094;-1.628;2022-08-27T03:22:54;23.70;58.20
40738;DHT22;54759;48.094;-1.628;2022-08-27T03:25:56;23.90;58.30
40738;DHT22;54759;48.094;-1.628;2022-08-27T03:28:58;24.00;58.30
40738;DHT22;54759;48.094;-1.628;2022-08-27T03:32:00;23.70;58.10
40738;DHT22;54759;48.094;-1.628;2022-08-27T03:35:01;23.90;58.30
40738;DHT22;54759;48.094;-1.628;2022-08-27T03:38:03;23.70;58.10
40738;DHT22;54759;48.094;-1.628;2022-08-27T03:41:05;23.50;58.00
40738;DHT22;54759;48.094;-1.628;2022-08-27T03:44:06;23.60;58.10
40738;DHT22;54759;48.094;-1.628;2022-08-27T03:47:08;24.00;58.40
40738;DHT22;54759;48.094;-1.628;2022-08-27T03:50:09;23.90;58.30
40738;DHT22;54759;48.094;-1.628;2022-08-27T03:53:15;23.90;58.30
40738;DHT22;54759;48.094;-1.628;2022-08-27T03:56:17;23.80;58.20
40738;DHT22;54759;48.094;-1.628;2022-08-27T03:59:18;23.40;58.00
40738;DHT22;54759;48.094;-1.628;2022-08-27T04:02:19;23.60;58.10
40738;DHT22;54759;48.094;-1.628;2022-08-27T04:05:21;23.40;58.10
40738;DHT22;54759;48.094;-1.628;2022-08-27T04:08:23;23.80;58.30
40738;DHT22;54759;48.094;-1.628;2022-08-27T04:11:25;23.70;58.20
40738;DHT22;54759;48.094;-1.628;2022-08-27T04:14:28;23.60;58.10
40738;DHT22;54759;48.094;-1.628;2022-08-27T04:17:31;23.90;58.30
40738;DHT22;54759;48.094;-1.628;2022-08-27T04:20:32;23.70;58.20
40738;DHT22;54759;48.094;-1.628;2022-08-27T04:23:36;23.70;58.30
40738;DHT22;54759;48.094;-1.628;2022-08-27T04:26:39;23.70;58.20
40738;DHT22;54759;48.094;-1.628;2022-08-27T04:29:40;23.70;58.20
40738;DHT22;54759;48.094;-1.628;2022-08-27T04:32:42;23.50;58.10
40738;DHT22;54759;48.094;-1.628;2022-08-27T04:35:43;23.50;58.10
40738;DHT22;54759;48.094;-1.628;2022-08-27T04:38:45;23.70;58.10
40738;DHT22;54759;48.094;-1.628;2022-08-27T04:41:48;23.90;58.30
40738;DHT22;54759;48.094;-1.628;2022-08-27T04:44:49;23.80;58.20
40738;DHT22;54759;48.094;-1.628;2022-08-27T04:47:53;23.50;58.10
40738;DHT22;54759;48.094;-1.628;2022-08-27T04:50:54;23.70;58.20
40738;DHT22;54759;48.094;-1.628;2022-08-27T04:53:56;23.40;58.00
40738;DHT22;54759;48.094;-1.628;2022-08-27T04:57:02;23.70;58.20
40738;DHT22;54759;48.094;-1.628;2022-08-27T05:00:04;23.50;58.10
40738;DHT22;54759;48.094;-1.628;2022-08-27T05:03:07;23.90;58.30
40738;DHT22;54759;48.094;-1.628;2022-08-27T05:06:09;23.40;58.10
40738;DHT22;54759;48.094;-1.628;2022-08-27T05:09:14;23.80;58.30
40738;DHT22;54759;48.094;-1.628;2022-08-27T05:12:16;23.40;58.10
40738;DHT22;54759;48.094;-1.628;2022-08-27T05:15:17;23.70;58.30
40738;DHT22;54759;48.094;-1.628;2022-08-27T05:18:22;23.50;58.10
40738;DHT22;54759;48.094;-1.628;2022-08-27T05:21:24;23.60;58.30
40738;DHT22;54759;48.094;-1.628;2022-08-27T05:24:26;23.80;58.30
40738;DHT22;54759;48.094;-1.628;2022-08-27T05:27:28;23.30;58.10
40738;DHT22;54759;48.094;-1.628;2022-08-27T05:30:33;23.60;58.20
40738;DHT22;54759;48.094;-1.628;2022-08-27T05:33:35;23.50;58.20
40738;DHT22;54759;48.094;-1.628;2022-08-27T05:36:38;23.60;58.20
40738;DHT22;54759;48.094;-1.628;2022-08-27T05:39:49;23.60;58.30
40738;DHT22;54759;48.094;-1.628;2022-08-27T05:42:51;23.40;58.20
40738;DHT22;54759;48.094;-1.628;2022-08-27T05:45:52;23.70;58.30
40738;DHT22;54759;48.094;-1.628;2022-08-27T05:48:55;23.40;58.10
40738;DHT22;54759;48.094;-1.628;2022-08-27T05:51:57;23.40;58.10
40738;DHT22;54759;48.094;-1.628;2022-08-27T05:54:58;23.50;58.20
40738;DHT22;54759;48.094;-1.628;2022-08-27T05:58:00;23.40;58.10
40738;DHT22;54759;48.094;-1.628;2022-08-27T06:01:02;23.60;58.30
40738;DHT22;54759;48.094;-1.628;2022-08-27T06:04:10;23.60;58.30
40738;DHT22;54759;48.094;-1.628;2022-08-27T06:07:18;23.40;58.10
40738;DHT22;54759;48.094;-1.628;2022-08-27T06:10:19;23.70;58.40
40738;DHT22;54759;48.094;-1.628;2022-08-27T06:13:21;23.40;58.20
40738;DHT22;54759;48.094;-1.628;2022-08-27T06:16:23;23.70;58.30
40738;DHT22;54759;48.094;-1.628;2022-08-27T06:19:25;23.30;58.00
40738;DHT22;54759;48.094;-1.628;2022-08-27T06:22:26;23.60;58.10
40738;DHT22;54759;48.094;-1.628;2022-08-27T06:25:27;23.50;58.10
40738;DHT22;54759;48.094;-1.628;2022-08-27T06:28:32;23.50;58.00
40738;DHT22;54759;48.094;-1.628;2022-08-27T06:31:35;23.50;57.90
40738;DHT22;54759;48.094;-1.628;2022-08-27T06:34:37;23.60;57.90
40738;DHT22;54759;48.094;-1.628;2022-08-27T06:37:38;23.50;57.80
40738;DHT22;54759;48.094;-1.628;2022-08-27T06:40:40;23.50;57.80
40738;DHT22;54759;48.094;-1.628;2022-08-27T06:43:42;23.50;57.80
40738;DHT22;54759;48.094;-1.628;2022-08-27T06:46:43;23.80;58.00
40738;DHT22;54759;48.094;-1.628;2022-08-27T06:49:48;23.50;57.80
40738;DHT22;54759;48.094;-1.628;2022-08-27T06:52:49;24.00;58.10
40738;DHT22;54759;48.094;-1.628;2022-08-27T06:55:50;23.80;58.00
40738;DHT22;54759;48.094;-1.628;2022-08-27T06:58:53;23.40;57.90
40738;DHT22;54759;48.094;-1.628;2022-08-27T07:01:55;23.70;58.00
40738;DHT22;54759;48.094;-1.628;2022-08-27T07:04:56;23.50;58.00
40738;DHT22;54759;48.094;-1.628;2022-08-27T07:07:58;23.20;57.90
40738;DHT22;54759;48.094;-1.628;2022-08-27T07:11:00;23.50;58.40
40738;DHT22;54759;48.094;-1.628;2022-08-27T07:14:02;23.90;58.30
40738;DHT22;54759;48.094;-1.628;2022-08-27T07:17:03;23.60;58.10
40738;DHT22;54759;48.094;-1.628;2022-08-27T07:20:06;23.60;58.10
40738;DHT22;54759;48.094;-1.628;2022-08-27T07:23:08;23.60;58.00
40738;DHT22;54759;48.094;-1.628;2022-08-27T07:26:12;23.60;58.10
40738;DHT22;54759;48.094;-1.628;2022-08-27T07:29:14;23.50;58.00
40738;DHT22;54759;48.094;-1.628;2022-08-27T07:32:16;23.90;58.10
40738;DHT22;54759;48.094;-1.628;2022-08-27T07:35:18;23.60;58.00
40738;DHT22;54759;48.094;-1.628;2022-08-27T07:38:20;23.90;58.00
40738;DHT22;54759;48.094;-1.628;2022-08-27T07:41:22;23.60;57.80
40738;DHT22;54759;48.094;-1.628;2022-08-27T07:44:31;23.60;57.80
40738;DHT22;54759;48.094;-1.628;2022-08-27T07:47:35;23.90;57.90
40738;DHT22;54759;48.094;-1.628;2022-08-27T07:50:37;23.80;57.80
40738;DHT22;54759;48.094;-1.628;2022-08-27T07:53:38;23.70;57.80
40738;DHT22;54759;48.094;-1.628;2022-08-27T07:56:39;23.90;57.90
40738;DHT22;54759;48.094;-1.628;2022-08-27T07:59:42;23.40;57.60
40738;DHT22;54759;48.094;-1.628;2022-08-27T08:02:43;23.70;57.80
40738;DHT22;54759;48.094;-1.628;2022-08-27T08:05:47;23.90;57.80
40738;DHT22;54759;48.094;-1.628;2022-08-27T08:08:49;23.70;57.70
40738;DHT22;54759;48.094;-1.628;2022-08-27T08:11:51;23.60;57.70
40738;DHT22;54759;48.094;-1.628;2022-08-27T08:14:53;23.90;58.00
40738;DHT22;54759;48.094;-1.628;2022-08-27T08:17:57;23.80;58.00
40738;DHT22;54759;48.094;-1.628;2022-08-27T08:21:03;23.60;57.90
40738;DHT22;54759;48.094;-1.628;2022-08-27T08:24:05;23.70;57.90
40738;DHT22;54759;48.094;-1.628;2022-08-27T08:27:07;23.60;57.80
40738;DHT22;54759;48.094;-1.628;2022-08-27T08:30:10;23.80;57.90
40738;DHT22;54759;48.094;-1.628;2022-08-27T08:33:11;23.70;57.80
40738;DHT22;54759;48.094;-1.628;2022-08-27T08:36:13;23.90;57.90
40738;DHT22;54759;48.094;-1.628;2022-08-27T08:39:17;23.50;57.60
40738;DHT22;54759;48.094;-1.628;2022-08-27T08:42:24;23.80;57.90
40738;DHT22;54759;48.094;-1.628;2022-08-27T08:45:30;23.50;57.60
40738;DHT22;54759;48.094;-1.628;2022-08-27T08:48:32;23.80;57.80
40738;DHT22;54759;48.094;-1.628;2022-08-27T08:51:35;23.90;57.80
40738;DHT22;54759;48.094;-1.628;2022-08-27T08:54:39;24.20;57.90
40738;DHT22;54759;48.094;-1.628;2022-08-27T08:57:42;23.60;57.70
40738;DHT22;54759;48.094;-1.628;2022-08-27T09:00:50;24.00;57.80
40738;DHT22;54759;48.094;-1.628;2022-08-27T09:03:54;23.60;57.50
40738;DHT22;54759;48.094;-1.628;2022-08-27T09:06:56;23.80;57.70
40738;DHT22;54759;48.094;-1.628;2022-08-27T09:09:59;24.00;57.90
40738;DHT22;54759;48.094;-1.628;2022-08-27T09:13:02;23.50;57.50
40738;DHT22;54759;48.094;-1.628;2022-08-27T09:16:06;23.70;57.50
40738;DHT22;54759;48.094;-1.628;2022-08-27T09:19:07;23.60;57.40
40738;DHT22;54759;48.094;-1.628;2022-08-27T09:22:15;23.90;57.60
40738;DHT22;54759;48.094;-1.628;2022-08-27T09:25:19;23.90;57.50
40738;DHT22;54759;48.094;-1.628;2022-08-27T09:28:26;23.60;57.40
40738;DHT22;54759;48.094;-1.628;2022-08-27T09:31:49;23.90;57.60
40738;DHT22;54759;48.094;-1.628;2022-08-27T09:34:56;23.90;57.60
40738;DHT22;54759;48.094;-1.628;2022-08-27T09:37:57;23.90;57.50
40738;DHT22;54759;48.094;-1.628;2022-08-27T09:41:02;24.00;57.60
40738;DHT22;54759;48.094;-1.628;2022-08-27T09:44:09;23.90;57.50
40738;DHT22;54759;48.094;-1.628;2022-08-27T09:47:13;24.20;57.70
40738;DHT22;54759;48.094;-1.628;2022-08-27T09:50:16;23.70;57.40
40738;DHT22;54759;48.094;-1.628;2022-08-27T09:53:19;24.00;57.50
40738;DHT22;54759;48.094;-1.628;2022-08-27T09:56:22;24.10;57.50
40738;DHT22;54759;48.094;-1.628;2022-08-27T09:59:26;24.10;57.50
40738;DHT22;54759;48.094;-1.628;2022-08-27T10:02:28;24.00;57.90
40738;DHT22;54759;48.094;-1.628;2022-08-27T10:05:31;23.70;57.10
40738;DHT22;54759;48.094;-1.628;2022-08-27T10:08:34;24.30;57.40
40738;DHT22;54759;48.094;-1.628;2022-08-27T10:11:39;24.20;57.30
40738;DHT22;54759;48.094;-1.628;2022-08-27T10:14:46;24.20;57.20
40738;DHT22;54759;48.094;-1.628;2022-08-27T10:17:53;23.70;56.90
40738;DHT22;54759;48.094;-1.628;2022-08-27T10:21:01;23.70;56.80
40738;DHT22;54759;48.094;-1.628;2022-08-27T10:24:11;24.20;57.10
40738;DHT22;54759;48.094;-1.628;2022-08-27T10:27:17;24.30;57.10
40738;DHT22;54759;48.094;-1.628;2022-08-27T10:30:20;24.00;56.90
40738;DHT22;54759;48.094;-1.628;2022-08-27T10:33:29;24.20;57.00
40738;DHT22;54759;48.094;-1.628;2022-08-27T10:36:36;24.00;56.80
40738;DHT22;54759;48.094;-1.628;2022-08-27T10:39:46;24.00;56.80
40738;DHT22;54759;48.094;-1.628;2022-08-27T10:42:55;24.30;56.90
40738;DHT22;54759;48.094;-1.628;2022-08-27T10:46:00;24.20;56.80
40738;DHT22;54759;48.094;-1.628;2022-08-27T10:49:08;24.40;56.90
40738;DHT22;54759;48.094;-1.628;2022-08-27T10:52:22;24.40;57.00
40738;DHT22;54759;48.094;-1.628;2022-08-27T10:55:26;24.10;56.80
40738;DHT22;54759;48.094;-1.628;2022-08-27T10:58:34;24.30;56.80
40738;DHT22;54759;48.094;-1.628;2022-08-27T11:01:42;24.10;56.70
40738;DHT22;54759;48.094;-1.628;2022-08-27T11:04:49;24.50;56.80
40738;DHT22;54759;48.094;-1.628;2022-08-27T11:07:52;24.40;56.80
40738;DHT22;54759;48.094;-1.628;2022-08-27T11:10:55;24.40;56.80
40738;DHT22;54759;48.094;-1.628;2022-08-27T11:13:58;24.50;56.80
40738;DHT22;54759;48.094;-1.628;2022-08-27T11:17:03;24.40;56.70
40738;DHT22;54759;48.094;-1.628;2022-08-27T11:20:06;24.40;56.70
40738;DHT22;54759;48.094;-1.628;2022-08-27T11:23:11;24.50;56.70
40738;DHT22;54759;48.094;-1.628;2022-08-27T11:26:14;24.20;56.60
40738;DHT22;54759;48.094;-1.628;2022-08-27T11:29:17;24.50;56.70
40738;DHT22;54759;48.094;-1.628;2022-08-27T11:32:24;24.20;56.50
40738;DHT22;54759;48.094;-1.628;2022-08-27T11:35:29;24.20;56.50
40738;DHT22;54759;48.094;-1.628;2022-08-27T11:38:38;24.50;56.90
40738;DHT22;54759;48.094;-1.628;2022-08-27T11:41:50;24.50;56.70
40738;DHT22;54759;48.094;-1.628;2022-08-27T11:44:55;24.50;56.60
40738;DHT22;54759;48.094;-1.628;2022-08-27T11:47:58;24.50;56.70
40738;DHT22;54759;48.094;-1.628;2022-08-27T11:51:02;24.50;56.60
40738;DHT22;54759;48.094;-1.628;2022-08-27T11:54:05;24.50;56.60
40738;DHT22;54759;48.094;-1.628;2022-08-27T11:57:12;24.10;56.40
40738;DHT22;54759;48.094;-1.628;2022-08-27T12:00:16;24.30;56.50
40738;DHT22;54759;48.094;-1.628;2022-08-27T12:03:22;24.20;56.40
40738;DHT22;54759;48.094;-1.628;2022-08-27T12:06:24;24.60;56.60
40738;DHT22;54759;48.094;-1.628;2022-08-27T12:09:26;24.30;56.40
40738;DHT22;54759;48.094;-1.628;2022-08-27T12:12:30;24.60;56.60
40738;DHT22;54759;48.094;-1.628;2022-08-27T12:15:38;24.60;56.40
40738;DHT22;54759;48.094;-1.628;2022-08-27T12:18:51;24.60;56.50
40738;DHT22;54759;48.094;-1.628;2022-08-27T12:22:02;24.30;56.30
40738;DHT22;54759;48.094;-1.628;2022-08-27T12:25:04;24.60;56.50
40738;DHT22;54759;48.094;-1.628;2022-08-27T12:28:08;24.60;56.50
40738;DHT22;54759;48.094;-1.628;2022-08-27T12:31:09;24.60;56.40
40738;DHT22;54759;48.094;-1.628;2022-08-27T12:34:12;24.50;56.30
40738;DHT22;54759;48.094;-1.628;2022-08-27T12:37:15;24.40;56.30
40738;DHT22;54759;48.094;-1.628;2022-08-27T12:40:22;24.50;56.30
40738;DHT22;54759;48.094;-1.628;2022-08-27T12:43:26;24.50;56.30
40738;DHT22;54759;48.094;-1.628;2022-08-27T12:46:27;24.70;56.30
40738;DHT22;54759;48.094;-1.628;2022-08-27T12:49:34;24.50;56.20
40738;DHT22;54759;48.094;-1.628;2022-08-27T12:52:45;24.60;56.20
40738;DHT22;54759;48.094;-1.628;2022-08-27T12:55:53;24.50;56.10
40738;DHT22;54759;48.094;-1.628;2022-08-27T12:59:01;24.40;56.10
40738;DHT22;54759;48.094;-1.628;2022-08-27T13:02:07;24.50;56.10
40738;DHT22;54759;48.094;-1.628;2022-08-27T13:05:16;24.70;56.20
40738;DHT22;54759;48.094;-1.628;2022-08-27T13:08:19;24.60;56.10
40738;DHT22;54759;48.094;-1.628;2022-08-27T13:11:23;24.50;56.00
40738;DHT22;54759;48.094;-1.628;2022-08-27T13:14:25;24.70;56.10
40738;DHT22;54759;48.094;-1.628;2022-08-27T13:17:27;24.40;55.90
40738;DHT22;54759;48.094;-1.628;2022-08-27T13:20:28;24.70;56.10
40738;DHT22;54759;48.094;-1.628;2022-08-27T13:23:31;24.50;56.00
40738;DHT22;54759;48.094;-1.628;2022-08-27T13:26:35;24.70;56.10
40738;DHT22;54759;48.094;-1.628;2022-08-27T13:29:37;24.60;56.00
40738;DHT22;54759;48.094;-1.628;2022-08-27T13:32:38;24.30;55.70
40738;DHT22;54759;48.094;-1.628;2022-08-27T13:35:40;24.40;55.80
40738;DHT22;54759;48.094;-1.628;2022-08-27T13:38:44;24.50;55.80
40738;DHT22;54759;48.094;-1.628;2022-08-27T13:41:50;24.70;55.90
40738;DHT22;54759;48.094;-1.628;2022-08-27T13:44:52;24.50;55.80
40738;DHT22;54759;48.094;-1.628;2022-08-27T13:47:56;24.70;55.80
40738;DHT22;54759;48.094;-1.628;2022-08-27T13:50:59;24.80;55.80
40738;DHT22;54759;48.094;-1.628;2022-08-27T13:54:08;24.80;55.80
40738;DHT22;54759;48.094;-1.628;2022-08-27T13:57:22;24.70;55.70
40738;DHT22;54759;48.094;-1.628;2022-08-27T14:00:24;24.50;55.60
40738;DHT22;54759;48.094;-1.628;2022-08-27T14:03:30;24.90;55.80
40738;DHT22;54759;48.094;-1.628;2022-08-27T14:06:33;24.50;55.50
40738;DHT22;54759;48.094;-1.628;2022-08-27T14:09:40;24.60;55.60
40738;DHT22;54759;48.094;-1.628;2022-08-27T14:12:42;24.70;55.50
40738;DHT22;54759;48.094;-1.628;2022-08-27T14:15:46;24.80;55.60
40738;DHT22;54759;48.094;-1.628;2022-08-27T14:18:49;24.70;55.50
40738;DHT22;54759;48.094;-1.628;2022-08-27T14:22:01;24.80;55.50
40738;DHT22;54759;48.094;-1.628;2022-08-27T14:25:03;24.50;55.30
40738;DHT22;54759;48.094;-1.628;2022-08-27T14:28:08;24.90;55.50
40738;DHT22;54759;48.094;-1.628;2022-08-27T14:31:09;24.80;55.40
40738;DHT22;54759;48.094;-1.628;2022-08-27T14:34:11;24.90;55.50
40738;DHT22;54759;48.094;-1.628;2022-08-27T14:37:14;24.70;55.30
40738;DHT22;54759;48.094;-1.628;2022-08-27T14:40:16;24.60;55.20
40738;DHT22;54759;48.094;-1.628;2022-08-27T14:43:19;24.90;55.30
40738;DHT22;54759;48.094;-1.628;2022-08-27T14:46:24;24.70;55.20
40738;DHT22;54759;48.094;-1.628;2022-08-27T14:49:29;25.10;55.40
40738;DHT22;54759;48.094;-1.628;2022-08-27T14:52:31;24.60;55.10
40738;DHT22;54759;48.094;-1.628;2022-08-27T14:55:33;24.70;55.10
40738;DHT22;54759;48.094;-1.628;2022-08-27T14:58:34;24.80;55.10
40738;DHT22;54759;48.094;-1.628;2022-08-27T15:01:36;24.90;55.10
40738;DHT22;54759;48.094;-1.628;2022-08-27T15:04:37;24.80;55.10
40738;DHT22;54759;48.094;-1.628;2022-08-27T15:07:39;24.70;55.00
40738;DHT22;54759;48.094;-1.628;2022-08-27T15:10:48;24.80;55.00
40738;DHT22;54759;48.094;-1.628;2022-08-27T15:13:49;24.60;54.90
40738;DHT22;54759;48.094;-1.628;2022-08-27T15:16:51;25.10;55.20
40738;DHT22;54759;48.094;-1.628;2022-08-27T15:19:53;25.00;55.00
40738;DHT22;54759;48.094;-1.628;2022-08-27T15:22:54;24.70;54.80
40738;DHT22;54759;48.094;-1.628;2022-08-27T15:25:56;24.90;54.90
40738;DHT22;54759;48.094;-1.628;2022-08-27T15:29:01;24.70;54.80
40738;DHT22;54759;48.094;-1.628;2022-08-27T15:32:07;24.80;54.80
40738;DHT22;54759;48.094;-1.628;2022-08-27T15:35:11;24.90;54.90
40738;DHT22;54759;48.094;-1.628;2022-08-27T15:38:13;24.70;54.70
40738;DHT22;54759;48.094;-1.628;2022-08-27T15:41:15;24.90;54.80
40738;DHT22;54759;48.094;-1.628;2022-08-27T15:44:16;24.70;54.60
40738;DHT22;54759;48.094;-1.628;2022-08-27T15:47:18;24.70;54.60
40738;DHT22;54759;48.094;-1.628;2022-08-27T15:50:20;24.90;54.70
40738;DHT22;54759;48.094;-1.628;2022-08-27T15:53:23;24.70;55.20
40738;DHT22;54759;48.094;-1.628;2022-08-27T15:56:26;24.70;54.50
40738;DHT22;54759;48.094;-1.628;2022-08-27T15:59:36;24.50;54.40
40738;DHT22;54759;48.094;-1.628;2022-08-27T16:02:37;24.80;54.60
40738;DHT22;54759;48.094;-1.628;2022-08-27T16:05:42;24.90;54.60
40738;DHT22;54759;48.094;-1.628;2022-08-27T16:08:44;24.70;54.40
40738;DHT22;54759;48.094;-1.628;2022-08-27T16:11:46;25.20;54.80
40738;DHT22;54759;48.094;-1.628;2022-08-27T16:14:47;25.10;54.60
40738;DHT22;54759;48.094;-1.628;2022-08-27T16:17:49;24.90;54.60
40738;DHT22;54759;48.094;-1.628;2022-08-27T16:20:52;24.80;54.50
40738;DHT22;54759;48.094;-1.628;2022-08-27T16:23:54;25.20;54.70
40738;DHT22;54759;48.094;-1.628;2022-08-27T16:26:56;25.20;54.70
40738;DHT22;54759;48.094;-1.628;2022-08-27T16:29:57;25.10;54.60
40738;DHT22;54759;48.094;-1.628;2022-08-27T16:33:02;24.90;54.40
40738;DHT22;54759;48.094;-1.628;2022-08-27T16:36:03;25.00;54.50
40738;DHT22;54759;48.094;-1.628;2022-08-27T16:39:05;25.10;54.50
40738;DHT22;54759;48.094;-1.628;2022-08-27T16:42:07;24.70;54.30
40738;DHT22;54759;48.094;-1.628;2022-08-27T16:45:09;25.20;54.50
40738;DHT22;54759;48.094;-1.628;2022-08-27T16:48:15;24.80;54.20
40738;DHT22;54759;48.094;-1.628;2022-08-27T16:51:32;24.90;54.20
40738;DHT22;54759;48.094;-1.628;2022-08-27T16:54:35;24.90;54.10
40738;DHT22;54759;48.094;-1.628;2022-08-27T16:57:38;25.10;54.20
40738;DHT22;54759;48.094;-1.628;2022-08-27T17:00:40;24.80;54.00
40738;DHT22;54759;48.094;-1.628;2022-08-27T17:03:43;25.00;54.10
40738;DHT22;54759;48.094;-1.628;2022-08-27T17:07:05;25.10;54.20
40738;DHT22;54759;48.094;-1.628;2022-08-27T17:10:06;25.20;54.20
40738;DHT22;54759;48.094;-1.628;2022-08-27T17:13:08;25.00;54.00
40738;DHT22;54759;48.094;-1.628;2022-08-27T17:16:09;25.30;54.30
40738;DHT22;54759;48.094;-1.628;2022-08-27T17:19:11;25.10;54.10
40738;DHT22;54759;48.094;-1.628;2022-08-27T17:22:17;25.10;54.10
40738;DHT22;54759;48.094;-1.628;2022-08-27T17:25:19;25.10;54.10
40738;DHT22;54759;48.094;-1.628;2022-08-27T17:28:24;25.30;54.20
40738;DHT22;54759;48.094;-1.628;2022-08-27T17:31:26;25.20;54.20
40738;DHT22;54759;48.094;-1.628;2022-08-27T17:34:29;25.20;54.10
40738;DHT22;54759;48.094;-1.628;2022-08-27T17:37:31;25.20;54.20
40738;DHT22;54759;48.094;-1.628;2022-08-27T17:40:32;25.00;54.00
40738;DHT22;54759;48.094;-1.628;2022-08-27T17:43:34;24.90;53.90
40738;DHT22;54759;48.094;-1.628;2022-08-27T17:46:35;25.10;54.00
40738;DHT22;54759;48.094;-1.628;2022-08-27T17:49:37;25.20;54.10
40738;DHT22;54759;48.094;-1.628;2022-08-27T17:52:39;25.10;54.00
40738;DHT22;54759;48.094;-1.628;2022-08-27T17:55:40;24.90;53.90
40738;DHT22;54759;48.094;-1.628;2022-08-27T17:58:46;25.30;54.20
40738;DHT22;54759;48.094;-1.628;2022-08-27T18:01:48;25.00;53.90
40738;DHT22;54759;48.094;-1.628;2022-08-27T18:04:50;25.30;54.10
40738;DHT22;54759;48.094;-1.628;2022-08-27T18:07:51;25.20;54.10
40738;DHT22;54759;48.094;-1.628;2022-08-27T18:10:53;25.20;54.10
40738;DHT22;54759;48.094;-1.628;2022-08-27T18:13:56;25.30;54.10
40738;DHT22;54759;48.094;-1.628;2022-08-27T18:17:03;24.90;53.90
40738;DHT22;54759;48.094;-1.628;2022-08-27T18:20:05;25.00;53.90
40738;DHT22;54759;48.094;-1.628;2022-08-27T18:23:07;25.30;54.10
40738;DHT22;54759;48.094;-1.628;2022-08-27T18:26:11;25.10;54.00
40738;DHT22;54759;48.094;-1.628;2022-08-27T18:29:14;25.20;54.00
40738;DHT22;54759;48.094;-1.628;2022-08-27T18:32:15;24.90;53.80
40738;DHT22;54759;48.094;-1.628;2022-08-27T18:35:19;25.50;54.30
40738;DHT22;54759;48.094;-1.628;2022-08-27T18:38:21;25.10;54.00
40738;DHT22;54759;48.094;-1.628;2022-08-27T18:41:22;25.30;54.10
40738;DHT22;54759;48.094;-1.628;2022-08-27T18:44:25;25.00;53.90
40738;DHT22;54759;48.094;-1.628;2022-08-27T18:47:26;25.30;54.20
40738;DHT22;54759;48.094;-1.628;2022-08-27T18:50:28;25.20;54.10
40738;DHT22;54759;48.094;-1.628;2022-08-27T18:53:30;25.10;54.10
40738;DHT22;54759;48.094;-1.628;2022-08-27T18:56:32;25.00;54.10
40738;DHT22;54759;48.094;-1.628;2022-08-27T18:59:37;24.90;54.00